createdAt,value
2019-03-15T00:00:16.894Z,6.81
2019-03-15T00:01:17.093Z,6.81
2019-03-15T00:02:17.009Z,6.84
2019-03-15T00:03:16.855Z,6.81
2019-03-15T00:04:16.844Z,6.85
2019-03-15T00:05:16.850Z,6.87
2019-03-15T00:06:16.881Z,6.81
2019-03-15T00:07:16.812Z,6.82
2019-03-15T00:08:17.121Z,6.84
2019-03-15T00:09:16.790Z,6.81
2019-03-15T00:10:16.779Z,6.82
2019-03-15T00:11:16.775Z,6.88
2019-03-15T00:12:16.757Z,6.87
2019-03-15T00:13:16.933Z,6.88
2019-03-15T00:14:16.736Z,6.87
2019-03-15T00:15:18.403Z,6.81
2019-03-15T00:16:16.739Z,6.81
2019-03-15T00:17:16.714Z,6.89
2019-03-15T00:18:16.691Z,6.81
2019-03-15T00:19:17.214Z,6.77
2019-03-15T00:20:16.659Z,6.67
2019-03-15T00:21:16.659Z,6.72
2019-03-15T00:22:16.657Z,6.70
2019-03-15T00:23:16.676Z,6.62
2019-03-15T00:24:16.638Z,6.51
2019-03-15T00:25:16.990Z,6.57
2019-03-15T00:26:16.884Z,6.57
2019-03-15T00:27:23.307Z,6.54
2019-03-15T00:28:16.608Z,6.66
2019-03-15T00:29:16.606Z,6.62
2019-03-15T00:30:16.550Z,6.63
2019-03-15T00:31:16.972Z,6.49
2019-03-15T00:32:16.543Z,6.49
2019-03-15T00:33:16.524Z,6.56
2019-03-15T00:34:16.737Z,6.60
2019-03-15T00:35:16.495Z,6.54
2019-03-15T00:36:17.796Z,6.66
2019-03-15T00:37:16.786Z,6.67
2019-03-15T00:38:16.469Z,6.70
2019-03-15T00:39:16.495Z,6.67
2019-03-15T00:40:16.819Z,6.69
2019-03-15T00:41:16.428Z,6.74
2019-03-15T00:42:16.673Z,6.78
2019-03-15T00:43:16.570Z,6.75
2019-03-15T00:44:16.418Z,6.81
2019-03-15T00:45:16.386Z,6.74
2019-03-15T00:46:16.376Z,6.69
2019-03-15T00:47:17.418Z,6.67
2019-03-15T00:48:16.360Z,6.70
2019-03-15T00:49:16.501Z,6.77
2019-03-15T00:50:16.340Z,6.75
2019-03-15T00:51:16.327Z,6.77
2019-03-15T00:52:16.351Z,6.78
2019-03-15T00:53:16.297Z,6.77
2019-03-15T00:54:16.536Z,6.85
2019-03-15T00:55:16.284Z,6.87
2019-03-15T00:56:16.280Z,6.79
2019-03-15T00:57:17.258Z,6.69
2019-03-15T00:58:16.239Z,6.75
2019-03-15T00:59:16.235Z,6.72
2019-03-15T01:00:16.502Z,6.72
2019-03-15T01:01:16.668Z,6.75
2019-03-15T01:02:17.036Z,6.81
2019-03-15T01:03:16.409Z,6.77
2019-03-15T01:04:16.177Z,6.74
2019-03-15T01:05:16.262Z,6.77
2019-03-15T01:06:16.354Z,6.74
2019-03-15T01:07:17.104Z,6.74
2019-03-15T01:08:19.606Z,6.81
2019-03-15T01:09:16.135Z,6.77
2019-03-15T01:10:16.111Z,6.79
2019-03-15T01:11:16.107Z,6.69
2019-03-15T01:12:16.201Z,6.70
2019-03-15T01:13:16.109Z,6.81
2019-03-15T01:14:16.631Z,6.78
2019-03-15T01:15:16.352Z,6.79
2019-03-15T01:16:16.149Z,6.81
2019-03-15T01:17:16.069Z,6.78
2019-03-15T01:18:16.659Z,6.78
2019-03-15T01:19:16.384Z,6.82
2019-03-15T01:20:16.005Z,6.78
2019-03-15T01:21:15.990Z,6.77
2019-03-15T01:22:15.976Z,6.74
2019-03-15T01:23:16.004Z,6.84
2019-03-15T01:24:16.011Z,6.88
2019-03-15T01:25:16.367Z,6.84
2019-03-15T01:26:15.946Z,6.88
2019-03-15T01:27:16.011Z,6.84
2019-03-15T01:28:15.954Z,6.85
2019-03-15T01:29:15.952Z,6.85
2019-03-15T01:30:15.898Z,6.89
2019-03-15T01:31:17.068Z,6.95
2019-03-15T01:32:15.877Z,6.85
2019-03-15T01:33:15.911Z,6.96
2019-03-15T01:34:15.860Z,6.88
2019-03-15T01:35:16.509Z,6.87
2019-03-15T01:36:16.069Z,6.85
2019-03-15T01:37:15.816Z,6.87
2019-03-15T01:38:15.826Z,6.87
2019-03-15T01:39:16.487Z,6.89
2019-03-15T01:40:15.793Z,7.00
2019-03-15T01:41:16.081Z,6.92
2019-03-15T01:42:15.765Z,6.92
2019-03-15T01:43:15.750Z,6.97
2019-03-15T01:44:15.738Z,6.95
2019-03-15T01:45:15.729Z,6.96
2019-03-15T01:46:16.085Z,6.96
2019-03-15T01:47:15.721Z,6.97
2019-03-15T01:48:15.797Z,6.96
2019-03-15T01:49:15.723Z,6.96
2019-03-15T01:50:15.670Z,6.96
2019-03-15T01:51:15.683Z,7.00
2019-03-15T01:52:15.815Z,6.93
2019-03-15T01:53:16.820Z,7.05
2019-03-15T01:54:15.630Z,6.93
2019-03-15T01:55:15.623Z,6.93
2019-03-15T01:56:15.605Z,7.06
2019-03-15T01:57:15.606Z,6.97
2019-03-15T01:58:15.996Z,6.97
2019-03-15T01:59:15.573Z,7.06
2019-03-15T02:00:15.556Z,6.93
2019-03-15T02:01:15.564Z,7.02
2019-03-15T02:02:15.573Z,6.93
2019-03-15T02:03:15.671Z,6.97
2019-03-15T02:04:16.050Z,6.93
2019-03-15T02:05:15.526Z,6.93
2019-03-15T02:06:17.474Z,6.93
2019-03-15T02:07:15.482Z,6.99
2019-03-15T02:08:15.481Z,6.96
2019-03-15T02:09:15.455Z,6.93
2019-03-15T02:10:15.549Z,6.85
2019-03-15T02:11:16.273Z,6.92
2019-03-15T02:12:15.429Z,6.88
2019-03-15T02:13:15.421Z,6.87
2019-03-15T02:14:15.435Z,6.93
2019-03-15T02:15:15.559Z,6.88
2019-03-15T02:16:15.383Z,6.93
2019-03-15T02:17:15.400Z,6.89
2019-03-15T02:18:15.397Z,6.93
2019-03-15T02:19:15.364Z,6.88
2019-03-15T02:20:15.506Z,6.81
2019-03-15T02:21:15.939Z,6.95
2019-03-15T02:22:15.353Z,6.84
2019-03-15T02:23:15.319Z,6.84
2019-03-15T02:24:15.304Z,6.87
2019-03-15T02:25:15.579Z,6.89
2019-03-15T02:26:15.273Z,6.92
2019-03-15T02:27:16.055Z,6.85
2019-03-15T02:28:15.261Z,6.89
2019-03-15T02:29:15.240Z,6.89
2019-03-15T02:30:15.241Z,6.82
2019-03-15T02:31:15.220Z,6.85
2019-03-15T02:32:15.309Z,6.78
2019-03-15T02:33:15.373Z,6.85
2019-03-15T02:34:15.196Z,6.85
2019-03-15T02:35:15.422Z,6.81
2019-03-15T02:36:15.300Z,6.87
2019-03-15T02:37:15.198Z,6.81
2019-03-15T02:38:15.143Z,6.93
2019-03-15T02:39:15.181Z,6.96
2019-03-15T02:40:15.304Z,6.99
2019-03-15T02:41:15.118Z,6.92
2019-03-15T02:42:15.428Z,6.92
2019-03-15T02:43:15.089Z,7.05
2019-03-15T02:44:15.075Z,6.93
2019-03-15T02:45:15.207Z,7.00
2019-03-15T02:46:15.058Z,6.96
2019-03-15T02:47:15.059Z,6.97
2019-03-15T02:48:15.374Z,6.92
2019-03-15T02:49:15.021Z,6.95
2019-03-15T02:50:15.012Z,6.93
2019-03-15T02:51:15.191Z,6.92
2019-03-15T02:52:15.768Z,6.95
2019-03-15T02:53:15.098Z,6.89
2019-03-15T02:54:14.966Z,6.93
2019-03-15T02:55:15.223Z,6.95
2019-03-15T02:56:15.129Z,6.87
2019-03-15T02:57:14.938Z,6.95
2019-03-15T02:58:14.937Z,6.89
2019-03-15T02:59:15.111Z,6.99
2019-03-15T03:00:14.900Z,6.88
2019-03-15T03:01:14.896Z,6.92
2019-03-15T03:02:14.888Z,6.95
2019-03-15T03:03:14.899Z,6.95
2019-03-15T03:04:14.868Z,6.96
2019-03-15T03:05:15.329Z,6.89
2019-03-15T03:06:14.840Z,6.96
2019-03-15T03:07:14.840Z,6.93
2019-03-15T03:08:14.823Z,6.95
2019-03-15T03:09:14.948Z,6.96
2019-03-15T03:10:14.792Z,6.96
2019-03-15T03:11:15.139Z,6.89
2019-03-15T03:12:14.771Z,6.89
2019-03-15T03:13:14.767Z,6.88
2019-03-15T03:14:14.752Z,6.88
2019-03-15T03:15:14.754Z,6.92
2019-03-15T03:16:14.734Z,6.89
2019-03-15T03:17:14.997Z,6.96
2019-03-15T03:18:15.112Z,6.89
2019-03-15T03:19:14.692Z,6.92
2019-03-15T03:20:14.694Z,6.85
2019-03-15T03:21:15.277Z,6.85
2019-03-15T03:22:14.676Z,6.78
2019-03-15T03:23:14.963Z,6.84
2019-03-15T03:24:14.642Z,6.85
2019-03-15T03:25:14.634Z,6.85
2019-03-15T03:26:14.737Z,6.87
2019-03-15T03:27:14.603Z,6.84
2019-03-15T03:28:15.100Z,6.88
2019-03-15T03:29:14.587Z,6.81
2019-03-15T03:30:16.427Z,6.82
2019-03-15T03:31:15.885Z,6.92
2019-03-15T03:32:14.878Z,6.88
2019-03-15T03:33:14.858Z,6.96
2019-03-15T03:34:15.039Z,6.92
2019-03-15T03:35:14.521Z,6.97
2019-03-15T03:36:14.500Z,6.99
2019-03-15T03:37:14.499Z,6.96
2019-03-15T03:38:14.582Z,7.00
2019-03-15T03:39:14.489Z,6.95
2019-03-15T03:40:14.673Z,6.93
2019-03-15T03:41:14.542Z,6.92
2019-03-15T03:42:14.601Z,6.95
2019-03-15T03:43:14.478Z,6.85
2019-03-15T03:44:14.666Z,6.88
2019-03-15T03:45:14.560Z,6.88
2019-03-15T03:46:15.047Z,6.92
2019-03-15T03:47:14.393Z,6.82
2019-03-15T03:48:15.736Z,6.87
2019-03-15T03:49:14.396Z,6.88
2019-03-15T03:50:14.350Z,6.89
2019-03-15T03:51:14.548Z,6.89
2019-03-15T03:52:14.329Z,6.84
2019-03-15T03:53:14.590Z,6.89
2019-03-15T03:54:14.320Z,6.81
2019-03-15T03:55:14.292Z,6.85
2019-03-15T03:56:14.285Z,6.85
2019-03-15T03:57:14.752Z,6.85
2019-03-15T03:58:14.341Z,6.87
2019-03-15T03:59:14.761Z,6.81
2019-03-15T04:00:14.247Z,6.88
2019-03-15T04:01:14.229Z,6.88
2019-03-15T04:02:14.290Z,6.81
2019-03-15T04:03:14.210Z,6.75
2019-03-15T04:04:14.193Z,6.78
2019-03-15T04:05:14.333Z,6.84
2019-03-15T04:06:14.179Z,6.84
2019-03-15T04:07:14.162Z,6.88
2019-03-15T04:08:14.156Z,6.85
2019-03-15T04:09:14.140Z,6.82
2019-03-15T04:10:14.133Z,6.79
2019-03-15T04:11:14.518Z,6.85
2019-03-15T04:12:14.139Z,6.84
2019-03-15T04:13:14.249Z,6.82
2019-03-15T04:14:14.099Z,6.87
2019-03-15T04:15:14.295Z,6.84
2019-03-15T04:16:14.448Z,6.81
2019-03-15T04:17:14.294Z,6.82
2019-03-15T04:18:14.044Z,6.87
2019-03-15T04:19:14.029Z,6.87
2019-03-15T04:20:14.026Z,6.82
2019-03-15T04:21:14.081Z,6.87
2019-03-15T04:22:14.394Z,6.93
2019-03-15T04:23:15.116Z,6.89
2019-03-15T04:24:13.988Z,6.92
2019-03-15T04:25:13.988Z,6.99
2019-03-15T04:26:13.974Z,6.97
2019-03-15T04:27:13.982Z,6.87
2019-03-15T04:28:14.400Z,6.93
2019-03-15T04:29:13.959Z,6.92
2019-03-15T04:30:14.097Z,6.93
2019-03-15T04:31:14.081Z,6.89
2019-03-15T04:32:14.152Z,6.93
2019-03-15T04:33:14.340Z,7.07
2019-03-15T04:34:14.262Z,7.06
2019-03-15T04:35:15.711Z,6.95
2019-03-15T04:36:14.661Z,6.89
2019-03-15T04:37:13.959Z,6.99
2019-03-15T04:38:14.613Z,6.87
2019-03-15T04:39:14.625Z,6.93
2019-03-15T04:40:13.798Z,6.85
2019-03-15T04:41:14.046Z,6.92
2019-03-15T04:42:13.779Z,6.95
2019-03-15T04:43:13.765Z,6.95
2019-03-15T04:44:13.760Z,6.93
2019-03-15T04:45:14.049Z,6.89
2019-03-15T04:46:13.749Z,6.93
2019-03-15T04:47:14.120Z,6.92
2019-03-15T04:48:14.786Z,6.82
2019-03-15T04:49:13.805Z,6.87
2019-03-15T04:50:13.700Z,6.93
2019-03-15T04:51:14.187Z,6.93
2019-03-15T04:52:14.137Z,6.92
2019-03-15T04:53:15.066Z,6.93
2019-03-15T04:54:13.645Z,6.93
2019-03-15T04:55:13.669Z,6.96
2019-03-15T04:56:15.539Z,6.95
2019-03-15T04:57:13.607Z,6.96
2019-03-15T04:58:14.005Z,6.97
2019-03-15T04:59:13.602Z,6.93
2019-03-15T05:00:13.584Z,7.00
2019-03-15T05:01:13.587Z,6.95
2019-03-15T05:02:13.558Z,6.97
2019-03-15T05:03:13.540Z,7.05
2019-03-15T05:04:13.973Z,7.11
2019-03-15T05:05:13.521Z,7.07
2019-03-15T05:06:13.933Z,7.02
2019-03-15T05:07:13.502Z,6.97
2019-03-15T05:08:13.489Z,7.03
2019-03-15T05:09:13.484Z,7.02
2019-03-15T05:10:13.464Z,7.03
2019-03-15T05:11:13.596Z,7.06
2019-03-15T05:12:13.509Z,7.03
2019-03-15T05:13:13.513Z,6.99
2019-03-15T05:14:13.439Z,6.93
2019-03-15T05:15:13.418Z,6.92
2019-03-15T05:16:13.402Z,6.97
2019-03-15T05:17:17.899Z,6.95
2019-03-15T05:18:13.385Z,6.92
2019-03-15T05:19:13.408Z,6.82
2019-03-15T05:20:13.356Z,6.87
2019-03-15T05:21:13.440Z,6.85
2019-03-15T05:22:13.336Z,6.81
2019-03-15T05:23:13.676Z,6.78
2019-03-15T05:24:13.342Z,6.82
2019-03-15T05:25:13.301Z,6.81
2019-03-15T05:26:13.333Z,6.75
2019-03-15T05:27:13.278Z,6.77
2019-03-15T05:28:13.273Z,6.72
2019-03-15T05:29:13.394Z,6.84
2019-03-15T05:30:13.249Z,6.69
2019-03-15T05:31:13.234Z,6.75
2019-03-15T05:32:13.233Z,6.72
2019-03-15T05:33:13.384Z,6.81
2019-03-15T05:34:13.217Z,6.75
2019-03-15T05:35:13.394Z,6.89
2019-03-15T05:36:13.344Z,6.81
2019-03-15T05:37:13.188Z,6.84
2019-03-15T05:38:14.990Z,6.85
2019-03-15T05:39:13.150Z,6.84
2019-03-15T05:40:13.670Z,6.85
2019-03-15T05:41:13.126Z,6.84
2019-03-15T05:42:13.238Z,6.85
2019-03-15T05:43:13.110Z,6.84
2019-03-15T05:44:18.471Z,6.84
2019-03-15T05:45:13.414Z,6.85
2019-03-15T05:46:15.527Z,6.85
2019-03-15T05:47:13.876Z,6.84
2019-03-15T05:48:13.058Z,6.84
2019-03-15T05:49:13.038Z,6.77
2019-03-15T05:50:13.411Z,6.70
2019-03-15T05:51:13.263Z,6.70
2019-03-15T05:52:13.006Z,6.74
2019-03-15T05:53:13.349Z,6.75
2019-03-15T05:54:12.980Z,6.75
2019-03-15T05:55:13.151Z,6.72
2019-03-15T05:56:12.988Z,6.75
2019-03-15T05:57:13.006Z,6.82
2019-03-15T05:58:13.084Z,6.75
2019-03-15T05:59:14.959Z,6.66
2019-03-15T06:00:12.918Z,6.67
2019-03-15T06:01:12.906Z,6.66
2019-03-15T06:02:12.898Z,6.66
2019-03-15T06:03:12.967Z,6.67
2019-03-15T06:04:13.003Z,6.75
2019-03-15T06:05:12.860Z,6.75
2019-03-15T06:06:12.848Z,6.88
2019-03-15T06:07:12.841Z,6.79
2019-03-15T06:08:12.860Z,6.79
2019-03-15T06:09:12.820Z,6.85
2019-03-15T06:10:12.971Z,6.85
2019-03-15T06:11:12.797Z,6.84
2019-03-15T06:12:12.795Z,6.87
2019-03-15T06:13:12.796Z,6.92
2019-03-15T06:14:12.767Z,6.89
2019-03-15T06:15:12.756Z,6.92
2019-03-15T06:16:12.815Z,7.10
2019-03-15T06:17:12.732Z,6.89
2019-03-15T06:18:12.729Z,6.99
2019-03-15T06:19:12.736Z,6.97
2019-03-15T06:20:14.008Z,7.03
2019-03-15T06:21:12.688Z,7.07
2019-03-15T06:22:12.973Z,7.21
2019-03-15T06:23:12.866Z,7.20
2019-03-15T06:24:12.663Z,7.21
2019-03-15T06:25:12.640Z,7.24
2019-03-15T06:26:12.639Z,7.23
2019-03-15T06:27:12.892Z,7.20
2019-03-15T06:28:12.615Z,7.28
2019-03-15T06:29:12.604Z,7.24
2019-03-15T06:30:12.600Z,7.28
2019-03-15T06:31:12.601Z,7.39
2019-03-15T06:32:12.603Z,7.33
2019-03-15T06:33:13.006Z,7.32
2019-03-15T06:34:12.565Z,7.35
2019-03-15T06:35:12.540Z,7.35
2019-03-15T06:36:12.537Z,7.40
2019-03-15T06:37:12.519Z,7.38
2019-03-15T06:38:12.503Z,7.42
2019-03-15T06:39:16.523Z,7.45
2019-03-15T06:40:13.766Z,7.50
2019-03-15T06:41:14.675Z,7.57
2019-03-15T06:42:12.498Z,7.58
2019-03-15T06:43:13.464Z,7.61
2019-03-15T06:44:12.886Z,7.70
2019-03-15T06:45:12.453Z,7.75
2019-03-15T06:46:14.702Z,7.73
2019-03-15T06:47:12.460Z,7.70
2019-03-15T06:48:12.384Z,7.72
2019-03-15T06:49:12.538Z,7.69
2019-03-15T06:50:13.580Z,7.67
2019-03-15T06:51:12.383Z,7.66
2019-03-15T06:52:12.637Z,7.57
2019-03-15T06:53:12.374Z,7.67
2019-03-15T06:54:12.326Z,7.61
2019-03-15T06:55:12.322Z,7.60
2019-03-15T06:56:12.298Z,7.67
2019-03-15T06:57:12.302Z,7.60
2019-03-15T06:58:18.226Z,7.53
2019-03-15T06:59:12.324Z,7.53
2019-03-15T07:00:12.252Z,7.47
2019-03-15T07:01:12.331Z,7.45
2019-03-15T07:02:13.718Z,7.48
2019-03-15T07:03:13.023Z,7.50
2019-03-15T07:04:12.220Z,7.60
2019-03-15T07:05:12.623Z,7.47
2019-03-15T07:06:12.203Z,7.50
2019-03-15T07:07:15.106Z,7.51
2019-03-15T07:08:12.910Z,7.56
2019-03-15T07:09:12.176Z,7.61
2019-03-15T07:10:12.143Z,7.66
2019-03-15T07:11:12.146Z,7.66
2019-03-15T07:12:12.137Z,7.70
2019-03-15T07:13:12.114Z,7.70
2019-03-15T07:14:12.560Z,7.70
2019-03-15T07:15:12.359Z,7.82
2019-03-15T07:16:12.186Z,7.85
2019-03-15T07:17:14.716Z,7.85
2019-03-15T07:18:12.530Z,7.91
2019-03-15T07:19:25.664Z,7.91
2019-03-15T07:20:13.043Z,7.91
2019-03-15T07:21:13.299Z,7.85
2019-03-15T07:22:13.459Z,7.87
2019-03-15T07:23:13.350Z,7.83
2019-03-15T07:24:24.422Z,7.85
2019-03-15T07:25:12.991Z,7.87
2019-03-15T07:26:12.350Z,7.87
2019-03-15T07:27:13.434Z,7.97
2019-03-15T07:28:11.964Z,8.08
2019-03-15T07:29:11.959Z,8.16
2019-03-15T07:30:11.951Z,8.27
2019-03-15T07:31:12.028Z,8.45
2019-03-15T07:32:12.194Z,8.58
2019-03-15T07:33:12.068Z,8.92
2019-03-15T07:34:13.776Z,9.08
2019-03-15T07:35:12.144Z,9.29
2019-03-15T07:36:11.986Z,9.31
2019-03-15T07:37:12.534Z,9.37
2019-03-15T07:38:11.944Z,9.16
2019-03-15T07:39:12.950Z,9.11
2019-03-15T07:40:11.821Z,9.06
2019-03-15T07:41:12.185Z,9.19
2019-03-15T07:42:30.388Z,9.16
2019-03-15T07:43:12.375Z,9.21
2019-03-15T07:44:12.658Z,9.28
2019-03-15T07:45:11.764Z,9.23
2019-03-15T07:46:11.773Z,9.34
2019-03-15T07:47:11.759Z,9.51
2019-03-15T07:48:22.546Z,9.61
2019-03-15T07:49:12.930Z,9.62
2019-03-15T07:50:14.290Z,9.56
2019-03-15T07:51:11.700Z,9.59
2019-03-15T07:52:11.732Z,9.72
2019-03-15T07:53:11.685Z,9.62
2019-03-15T07:54:11.676Z,9.76
2019-03-15T07:55:12.208Z,9.76
2019-03-15T07:56:11.641Z,9.77
2019-03-15T07:57:11.653Z,9.82
2019-03-15T07:58:11.618Z,9.80
2019-03-15T07:59:11.615Z,9.76
2019-03-15T08:00:11.617Z,9.92
2019-03-15T08:01:12.023Z,9.91
2019-03-15T08:02:11.581Z,10.16
2019-03-15T08:03:11.596Z,10.48
2019-03-15T08:04:17.067Z,10.31
2019-03-15T08:05:12.546Z,10.23
2019-03-15T08:06:12.004Z,10.13
2019-03-15T08:07:11.667Z,10.12
2019-03-15T08:08:11.518Z,9.91
2019-03-15T08:09:11.505Z,9.79
2019-03-15T08:10:11.490Z,9.72
2019-03-15T08:11:12.073Z,9.59
2019-03-15T08:12:11.461Z,9.51
2019-03-15T08:13:11.454Z,9.59
2019-03-15T08:14:11.460Z,9.54
2019-03-15T08:15:11.503Z,9.62
2019-03-15T08:16:11.645Z,9.65
2019-03-15T08:17:11.405Z,9.91
2019-03-15T08:18:11.648Z,10.44
2019-03-15T08:19:11.406Z,10.46
2019-03-15T08:20:11.406Z,10.23
2019-03-15T08:21:11.363Z,10.10
2019-03-15T08:22:11.444Z,9.77
2019-03-15T08:23:11.557Z,9.65
2019-03-15T08:24:11.462Z,9.66
2019-03-15T08:25:11.328Z,9.76
2019-03-15T08:26:11.870Z,10.20
2019-03-15T08:27:11.304Z,10.33
2019-03-15T08:28:11.307Z,10.63
2019-03-15T08:29:11.430Z,10.74
2019-03-15T08:30:11.296Z,10.99
2019-03-15T08:31:11.675Z,11.29
2019-03-15T08:32:11.484Z,11.48
2019-03-15T08:33:11.396Z,11.29
2019-03-15T08:34:11.320Z,11.07
2019-03-15T08:35:11.200Z,10.76
2019-03-15T08:36:11.197Z,10.96
2019-03-15T08:37:11.697Z,11.10
2019-03-15T08:38:11.179Z,10.75
2019-03-15T08:39:11.231Z,10.48
2019-03-15T08:40:11.159Z,10.19
2019-03-15T08:41:11.139Z,10.13
2019-03-15T08:42:11.173Z,10.04
2019-03-15T08:43:12.106Z,9.92
2019-03-15T08:44:11.120Z,10.12
2019-03-15T08:45:11.110Z,10.09
2019-03-15T08:46:11.085Z,9.98
2019-03-15T08:47:11.157Z,9.94
2019-03-15T08:48:11.062Z,9.97
2019-03-15T08:49:11.426Z,9.76
2019-03-15T08:50:14.537Z,9.77
2019-03-15T08:51:11.122Z,9.58
2019-03-15T08:52:11.021Z,9.77
2019-03-15T08:53:11.028Z,9.79
2019-03-15T08:54:11.376Z,9.77
2019-03-15T08:55:11.000Z,9.77
2019-03-15T08:56:14.263Z,9.79
2019-03-15T08:57:10.978Z,9.84
2019-03-15T08:58:14.582Z,9.91
2019-03-15T08:59:12.539Z,9.74
2019-03-15T09:00:10.936Z,9.73
2019-03-15T09:01:11.219Z,9.54
2019-03-15T09:02:10.922Z,9.43
2019-03-15T09:03:10.900Z,9.39
2019-03-15T09:04:15.469Z,9.44
2019-03-15T09:05:11.075Z,9.41
2019-03-15T09:06:10.886Z,9.36
2019-03-15T09:07:10.852Z,9.50
2019-03-15T09:08:11.234Z,9.54
2019-03-15T09:09:10.828Z,9.69
2019-03-15T09:10:21.986Z,9.95
2019-03-15T09:11:12.107Z,10.17
2019-03-15T09:12:10.808Z,10.28
2019-03-15T09:13:10.934Z,10.40
2019-03-15T09:14:10.785Z,10.54
2019-03-15T09:15:10.816Z,10.71
2019-03-15T09:16:10.756Z,10.74
2019-03-15T09:17:11.222Z,10.76
2019-03-15T09:18:10.725Z,10.60
2019-03-15T09:19:10.748Z,10.63
2019-03-15T09:20:10.712Z,10.51
2019-03-15T09:21:11.305Z,10.48
2019-03-15T09:22:10.692Z,10.60
2019-03-15T09:23:10.687Z,10.75
2019-03-15T09:24:10.659Z,10.84
2019-03-15T09:25:19.439Z,11.00
2019-03-15T09:26:12.509Z,10.93
2019-03-15T09:27:10.826Z,10.79
2019-03-15T09:28:10.697Z,10.59
2019-03-15T09:29:10.683Z,10.64
2019-03-15T09:30:22.616Z,10.78
2019-03-15T09:31:11.639Z,10.56
2019-03-15T09:32:11.220Z,10.34
2019-03-15T09:33:10.979Z,10.33
2019-03-15T09:34:10.561Z,10.37
2019-03-15T09:35:10.600Z,10.38
2019-03-15T09:36:10.533Z,10.53
2019-03-15T09:37:10.516Z,10.48
2019-03-15T09:38:10.811Z,10.60
2019-03-15T09:39:10.513Z,10.61
2019-03-15T09:40:10.485Z,10.54
2019-03-15T09:41:10.478Z,10.42
2019-03-15T09:42:10.477Z,10.35
2019-03-15T09:43:10.456Z,10.33
2019-03-15T09:44:10.912Z,10.38
2019-03-15T09:45:10.885Z,10.33
2019-03-15T09:46:10.421Z,10.01
2019-03-15T09:47:10.418Z,9.94
2019-03-15T09:48:10.400Z,9.99
2019-03-15T09:49:11.094Z,10.04
2019-03-15T09:50:21.106Z,9.95
2019-03-15T09:51:11.366Z,9.89
2019-03-15T09:52:10.350Z,9.92
2019-03-15T09:53:10.353Z,9.91
2019-03-15T09:54:10.326Z,9.92
2019-03-15T09:55:10.332Z,9.76
2019-03-15T09:56:10.457Z,9.91
2019-03-15T09:57:10.301Z,9.92
2019-03-15T09:58:10.289Z,10.01
2019-03-15T09:59:10.279Z,9.99
2019-03-15T10:00:10.363Z,10.02
2019-03-15T10:01:10.605Z,10.16
2019-03-15T10:02:13.617Z,10.16
2019-03-15T10:03:21.465Z,10.09
2019-03-15T10:04:11.212Z,10.23
2019-03-15T10:05:11.647Z,10.19
2019-03-15T10:06:15.728Z,10.10
2019-03-15T10:07:11.209Z,10.10
2019-03-15T10:08:10.199Z,10.23
2019-03-15T10:09:10.168Z,10.46
2019-03-15T10:10:13.996Z,10.75
2019-03-15T10:11:10.489Z,10.99
2019-03-15T10:12:10.151Z,11.22
2019-03-15T10:13:10.222Z,11.40
2019-03-15T10:14:10.112Z,11.54
2019-03-15T10:15:10.210Z,11.51
2019-03-15T10:16:10.496Z,11.68
2019-03-15T10:17:10.230Z,11.70
2019-03-15T10:18:10.443Z,11.78
2019-03-15T10:19:10.213Z,11.73
2019-03-15T10:20:12.581Z,11.70
2019-03-15T10:21:10.079Z,11.72
2019-03-15T10:22:10.022Z,11.78
2019-03-15T10:23:11.429Z,11.86
2019-03-15T10:24:10.009Z,11.66
2019-03-15T10:25:10.002Z,11.78
2019-03-15T10:26:10.025Z,11.97
2019-03-15T10:27:09.961Z,12.22
2019-03-15T10:28:09.964Z,12.18
2019-03-15T10:29:15.752Z,12.13
2019-03-15T10:30:10.925Z,12.25
2019-03-15T10:31:10.017Z,12.09
2019-03-15T10:32:09.951Z,12.18
2019-03-15T10:33:09.980Z,12.17
2019-03-15T10:34:10.104Z,11.78
2019-03-15T10:35:10.214Z,11.55
2019-03-15T10:36:10.086Z,11.30
2019-03-15T10:37:09.952Z,11.17
2019-03-15T10:38:10.033Z,11.14
2019-03-15T10:39:10.171Z,11.23
2019-03-15T10:40:09.832Z,11.12
2019-03-15T10:41:10.144Z,11.08
2019-03-15T10:42:09.794Z,11.05
2019-03-15T10:43:09.784Z,11.00
2019-03-15T10:44:09.782Z,11.22
2019-03-15T10:45:09.778Z,11.29
2019-03-15T10:46:09.775Z,11.27
2019-03-15T10:47:10.405Z,11.43
2019-03-15T10:48:09.737Z,11.55
2019-03-15T10:49:09.730Z,11.68
2019-03-15T10:50:09.711Z,11.65
2019-03-15T10:51:09.812Z,11.63
2019-03-15T10:52:10.085Z,11.60
2019-03-15T10:53:10.211Z,11.60
2019-03-15T10:54:09.681Z,11.45
2019-03-15T10:55:09.656Z,11.36
2019-03-15T10:56:11.677Z,11.25
2019-03-15T10:57:09.643Z,11.15
2019-03-15T10:58:09.643Z,11.04
2019-03-15T10:59:09.735Z,11.00
2019-03-15T11:00:09.605Z,10.82
2019-03-15T11:01:11.418Z,10.81
2019-03-15T11:02:09.582Z,10.96
2019-03-15T11:03:12.948Z,11.02
2019-03-15T11:04:09.597Z,11.08
2019-03-15T11:05:09.547Z,11.23
2019-03-15T11:06:09.543Z,11.37
2019-03-15T11:07:09.533Z,11.54
2019-03-15T11:08:09.614Z,11.73
2019-03-15T11:09:09.720Z,11.68
2019-03-15T11:10:09.525Z,11.59
2019-03-15T11:11:09.485Z,11.57
2019-03-15T11:12:09.466Z,11.54
2019-03-15T11:13:09.456Z,11.47
2019-03-15T11:14:09.463Z,11.62
2019-03-15T11:15:09.632Z,11.78
2019-03-15T11:16:09.443Z,12.32
2019-03-15T11:17:09.439Z,12.95
2019-03-15T11:18:09.408Z,13.37
2019-03-15T11:19:09.415Z,13.63
2019-03-15T11:20:09.547Z,13.99
2019-03-15T11:21:09.571Z,13.67
2019-03-15T11:22:11.106Z,13.31
2019-03-15T11:23:09.421Z,12.78
2019-03-15T11:24:09.350Z,12.45
2019-03-15T11:25:09.446Z,12.17
2019-03-15T11:26:14.009Z,12.18
2019-03-15T11:27:09.694Z,12.18
2019-03-15T11:28:09.516Z,12.32
2019-03-15T11:29:09.285Z,13.30
2019-03-15T11:30:09.275Z,13.97
2019-03-15T11:31:09.271Z,14.89
2019-03-15T11:32:09.272Z,15.22
2019-03-15T11:33:09.236Z,15.14
2019-03-15T11:34:10.101Z,14.97
2019-03-15T11:35:09.253Z,15.58
2019-03-15T11:36:09.210Z,15.21
2019-03-15T11:37:09.238Z,14.77
2019-03-15T11:38:09.200Z,14.85
2019-03-15T11:39:09.172Z,14.70
2019-03-15T11:40:10.350Z,15.06
2019-03-15T11:41:09.164Z,15.54
2019-03-15T11:42:09.183Z,15.79
2019-03-15T11:43:10.724Z,15.67
2019-03-15T11:44:09.145Z,15.27
2019-03-15T11:45:09.147Z,14.91
2019-03-15T11:46:09.623Z,14.63
2019-03-15T11:47:09.104Z,14.36
2019-03-15T11:48:09.221Z,14.18
2019-03-15T11:49:09.065Z,13.79
2019-03-15T11:50:09.084Z,13.54
2019-03-15T11:51:09.166Z,13.27
2019-03-15T11:52:09.151Z,12.98
2019-03-15T11:53:09.034Z,12.62
2019-03-15T11:54:09.026Z,12.64
2019-03-15T11:55:09.003Z,12.53
2019-03-15T11:56:09.021Z,13.03
2019-03-15T11:57:09.239Z,13.60
2019-03-15T11:58:09.451Z,13.92
2019-03-15T11:59:09.713Z,13.65
2019-03-15T12:00:08.940Z,13.59
2019-03-15T12:01:08.945Z,13.71
2019-03-15T12:02:10.689Z,13.78
2019-03-15T12:03:09.090Z,13.72
2019-03-15T12:04:09.801Z,13.57
2019-03-15T12:05:08.886Z,13.49
2019-03-15T12:06:08.882Z,13.56
2019-03-15T12:07:10.429Z,13.68
2019-03-15T12:08:09.035Z,13.59
2019-03-15T12:09:08.839Z,13.50
2019-03-15T12:10:08.897Z,13.47
2019-03-15T12:11:08.991Z,13.31
2019-03-15T12:12:10.214Z,13.05
2019-03-15T12:13:09.050Z,12.78
2019-03-15T12:14:09.099Z,12.70
2019-03-15T12:15:08.780Z,12.67
2019-03-15T12:16:08.780Z,12.76
2019-03-15T12:17:09.068Z,12.90
2019-03-15T12:18:08.832Z,13.01
2019-03-15T12:19:08.725Z,12.82
2019-03-15T12:20:08.723Z,12.72
2019-03-15T12:21:08.705Z,12.50
2019-03-15T12:22:08.708Z,12.31
2019-03-15T12:23:09.040Z,12.13
2019-03-15T12:24:08.694Z,11.90
2019-03-15T12:25:09.250Z,11.70
2019-03-15T12:26:10.154Z,11.66
2019-03-15T12:27:08.656Z,11.54
2019-03-15T12:28:08.630Z,11.40
2019-03-15T12:29:09.956Z,11.37
2019-03-15T12:30:08.703Z,11.37
2019-03-15T12:31:08.747Z,11.44
2019-03-15T12:32:08.583Z,11.32
2019-03-15T12:33:08.619Z,11.26
2019-03-15T12:34:09.100Z,11.15
2019-03-15T12:35:08.600Z,11.15
2019-03-15T12:36:08.540Z,11.30
2019-03-15T12:37:08.533Z,11.40
2019-03-15T12:38:08.529Z,11.27
2019-03-15T12:39:08.510Z,11.17
2019-03-15T12:40:08.652Z,10.96
2019-03-15T12:41:08.494Z,10.74
2019-03-15T12:42:08.484Z,10.67
2019-03-15T12:43:08.458Z,10.64
2019-03-15T12:44:10.569Z,10.82
2019-03-15T12:45:08.443Z,10.82
2019-03-15T12:46:09.184Z,10.78
2019-03-15T12:47:08.469Z,10.75
2019-03-15T12:48:08.417Z,10.72
2019-03-15T12:49:08.404Z,10.61
2019-03-15T12:50:08.441Z,10.41
2019-03-15T12:51:08.594Z,10.35
2019-03-15T12:52:08.368Z,10.35
2019-03-15T12:53:08.350Z,10.38
2019-03-15T12:54:08.347Z,10.30
2019-03-15T12:55:08.336Z,10.30
2019-03-15T12:56:11.172Z,10.35
2019-03-15T12:57:08.575Z,10.48
2019-03-15T12:58:08.306Z,10.57
2019-03-15T12:59:22.231Z,10.96
2019-03-15T13:00:09.309Z,10.96
2019-03-15T13:01:08.296Z,10.87
2019-03-15T13:02:08.283Z,10.82
2019-03-15T13:03:08.779Z,10.75
2019-03-15T13:04:08.259Z,10.67
2019-03-15T13:05:08.478Z,10.74
2019-03-15T13:06:08.213Z,10.81
2019-03-15T13:07:08.197Z,10.90
2019-03-15T13:08:08.489Z,11.05
2019-03-15T13:09:08.187Z,11.04